Time;durP1;ratioP1;P1;durP2;ratioP2;P2;SDS_P1;SDS_P2;PMS_P1;PMS_P2;Temp;Humidity;BMP_temperature;BMP_pressure;BME280_temperature;BME280_humidity;BME280_pressure;Samples;Min_cycle;Max_cycle;Signal;HPM_P1;HPM_P2
2022/08/14 00:01:49;;;;;;;12.43;7.35;;;;;;;17.83;97.39;94099.94;5010416;28;20255;-74
2022/08/14 00:04:16;;;;;;;16.90;8.40;;;;;;;17.90;96.74;94094.50;5009562;28;20232;-74
2022/08/14 00:06:43;;;;;;;15.68;8.35;;;;;;;17.89;95.75;94081.97;5009694;28;20205;-74
2022/08/14 00:09:10;;;;;;;15.57;7.28;;;;;;;17.72;96.43;94095.22;5009507;28;20264;-75
2022/08/14 00:11:38;;;;;;;14.20;8.65;;;;;;;17.73;96.54;94087.78;5009005;28;20608;-74
2022/08/14 00:14:05;;;;;;;21.27;11.75;;;;;;;17.46;98.41;94081.78;5008917;28;20201;-75
2022/08/14 00:16:32;;;;;;;21.20;13.00;;;;;;;17.34;99.29;94085.63;5009716;28;20263;-75
2022/08/14 00:18:59;;;;;;;14.90;7.93;;;;;;;17.32;99.60;94082.47;5009489;28;20664;-75
2022/08/14 00:21:26;;;;;;;15.00;7.18;;;;;;;17.41;99.18;94071.16;5010227;28;20204;-74
2022/08/14 00:23:55;;;;;;;16.33;8.07;;;;;;;17.58;98.75;94067.72;5012539;28;20258;-75
2022/08/14 00:26:22;;;;;;;19.30;11.48;;;;;;;17.71;98.27;94077.19;5012268;28;20224;-74
2022/08/14 00:28:52;;;;;;;14.98;7.43;;;;;;;17.80;97.67;94076.03;5012740;28;20288;-74
2022/08/14 00:31:19;;;;;;;13.05;7.50;;;;;;;17.85;97.16;94073.72;5013184;28;20742;-74
2022/08/14 00:33:46;;;;;;;16.23;8.63;;;;;;;17.80;97.40;94078.78;5012803;28;20212;-74
2022/08/14 00:36:13;;;;;;;19.90;12.10;;;;;;;17.80;96.84;94074.09;5013016;28;20643;-74
2022/08/14 00:38:40;;;;;;;15.25;7.65;;;;;;;17.62;97.12;94081.44;5012300;28;20205;-74
2022/08/14 00:41:08;;;;;;;12.00;7.50;;;;;;;17.46;97.56;94076.28;5012841;28;20213;-75
2022/08/14 00:43:36;;;;;;;18.52;9.52;;;;;;;17.51;97.25;94078.63;5012433;28;20287;-74
2022/08/14 00:46:07;;;;;;;16.88;8.18;;;;;;;17.40;97.46;94072.34;5012500;28;20243;-74
2022/08/14 00:48:34;;;;;;;11.10;7.65;;;;;;;17.34;98.62;94076.63;5012370;28;20244;-73
2022/08/14 00:51:01;;;;;;;17.35;9.60;;;;;;;17.31;99.48;94085.59;5012654;28;20201;-74
2022/08/14 00:53:28;;;;;;;17.95;8.70;;;;;;;17.27;99.52;94077.38;5011891;28;20228;-75
2022/08/14 00:55:56;;;;;;;15.13;7.93;;;;;;;17.26;100.00;94072.25;5012739;28;20213;-74
2022/08/14 00:58:33;;;;;;;19.15;9.25;;;;;;;17.40;99.68;94061.38;5012213;28;20364;-74
2022/08/14 01:01:03;;;;;;;15.55;8.88;;;;;;;17.31;99.86;94060.97;5012721;28;20657;-73
2022/08/14 01:03:38;;;;;;;15.20;8.93;;;;;;;17.25;100.00;94059.75;5012724;28;20228;-74
2022/08/14 01:06:07;;;;;;;23.23;11.95;;;;;;;17.33;100.00;94062.16;5012545;28;20294;-73
2022/08/14 01:08:36;;;;;;;17.75;8.82;;;;;;;17.44;99.37;94051.25;5012331;28;20270;-73
2022/08/14 01:11:03;;;;;;;16.77;8.13;;;;;;;17.53;99.26;94048.91;5012477;28;20213;-73
2022/08/14 01:13:32;;;;;;;22.15;10.55;;;;;;;17.56;98.36;94042.69;5012373;28;20201;-73
2022/08/14 01:16:01;;;;;;;16.25;7.45;;;;;;;17.51;99.01;94045.78;4999384;28;20279;-74
2022/08/14 01:21:21;;;;;;;28.42;10.25;;;;;;;17.37;99.18;94040.25;5012253;28;20232;-74
2022/08/14 01:23:52;;;;;;;23.60;10.23;;;;;;;17.44;99.50;94034.81;5011503;28;20221;-74
2022/08/14 01:26:22;;;;;;;17.52;9.60;;;;;;;17.47;99.73;94036.00;5012081;28;20547;-74
2022/08/14 01:28:51;;;;;;;22.48;9.73;;;;;;;17.47;99.32;94033.25;5011821;28;20213;-74
2022/08/14 01:31:19;;;;;;;19.10;10.02;;;;;;;17.30;100.00;94026.53;5012232;28;20205;-75
2022/08/14 01:33:48;;;;;;;33.17;18.20;;;;;;;17.34;100.00;94036.34;5012086;28;20216;-75
2022/08/14 01:36:18;;;;;;;26.10;12.13;;;;;;;17.33;100.00;94039.47;5011630;28;20205;-75
2022/08/14 01:38:47;;;;;;;38.83;18.75;;;;;;;17.34;100.00;94043.78;4998878;28;20209;-75
2022/08/14 01:41:18;;;;;;;34.83;17.77;;;;;;;17.37;100.00;94030.06;5011847;28;20672;-75
2022/08/14 01:43:48;;;;;;;18.45;8.90;;;;;;;17.43;100.00;94038.72;5011855;28;20217;-73
2022/08/14 01:46:16;;;;;;;18.90;9.32;;;;;;;17.46;100.00;94035.22;5011445;28;20248;-74
2022/08/14 01:48:44;;;;;;;16.52;9.55;;;;;;;17.58;99.63;94034.06;5011373;28;20668;-74
2022/08/14 01:51:13;;;;;;;20.55;10.40;;;;;;;17.72;98.79;94031.41;5011767;28;20205;-74
2022/08/14 01:53:42;;;;;;;18.42;9.50;;;;;;;17.71;98.25;94033.38;5011766;28;20267;-73
2022/08/14 01:56:09;;;;;;;20.85;8.88;;;;;;;17.75;97.71;94033.38;5010856;28;20205;-76
2022/08/14 01:58:38;;;;;;;34.35;18.67;;;;;;;17.67;97.25;94032.56;5011272;28;20352;-75
2022/08/14 02:01:05;;;;;;;24.92;11.80;;;;;;;17.81;97.09;94033.78;5011239;28;20251;-73
2022/08/14 02:03:39;;;;;;;18.90;10.25;;;;;;;17.87;97.11;94024.81;5011140;28;20571;-74
2022/08/14 02:06:07;;;;;;;20.27;9.50;;;;;;;17.70;96.65;94020.84;5011304;28;20703;-74
2022/08/14 02:08:36;;;;;;;15.80;9.02;;;;;;;17.66;97.68;94031.00;5010694;28;20205;-75
2022/08/14 02:11:22;;;;;;;14.70;8.30;;;;;;;17.35;100.00;94031.66;5011488;28;20227;-74
2022/08/14 02:13:55;;;;;;;17.33;9.00;;;;;;;17.29;99.88;94033.97;5010847;28;20205;-75
2022/08/14 02:16:25;;;;;;;12.85;7.47;;;;;;;17.25;100.00;94030.41;5011774;28;20314;-74
2022/08/14 02:18:54;;;;;;;13.40;7.20;;;;;;;17.12;100.00;94025.66;5010737;28;20209;-74
2022/08/14 02:21:21;;;;;;;15.60;8.57;;;;;;;16.95;100.00;94030.66;5011061;28;20201;-74
2022/08/14 02:23:49;;;;;;;12.18;6.15;;;;;;;16.93;100.00;94032.22;5011000;28;20236;-74
2022/08/14 02:26:18;;;;;;;14.55;7.97;;;;;;;16.92;100.00;94020.50;5010158;28;20711;-73
2022/08/14 02:28:46;;;;;;;11.38;6.68;;;;;;;16.85;100.00;94020.44;5011058;28;20208;-74
2022/08/14 02:31:15;;;;;;;15.32;8.30;;;;;;;16.85;100.00;94016.91;5010637;28;20201;-74
2022/08/14 02:33:42;;;;;;;12.68;6.18;;;;;;;16.81;100.00;94019.63;5010782;28;20623;-74
2022/08/14 02:36:11;;;;;;;16.45;7.07;;;;;;;16.79;100.00;94026.66;5010152;28;20603;-74
2022/08/14 02:38:40;;;;;;;10.57;6.90;;;;;;;16.74;100.00;94018.81;5009772;28;20285;-74
2022/08/14 02:41:12;;;;;;;10.15;6.57;;;;;;;16.84;100.00;94018.88;5010324;28;20244;-74
2022/08/14 02:43:41;;;;;;;11.43;7.43;;;;;;;16.77;100.00;94027.03;4998053;28;20730;-74
2022/08/14 02:46:09;;;;;;;11.93;6.63;;;;;;;16.75;100.00;94026.63;5010667;28;20679;-74
2022/08/14 02:48:42;;;;;;;11.90;6.47;;;;;;;16.79;100.00;94016.50;5010640;28;20299;-74
2022/08/14 02:51:10;;;;;;;13.48;6.72;;;;;;;16.84;100.00;94021.59;5010214;28;20270;-74
2022/08/14 02:53:40;;;;;;;14.15;7.75;;;;;;;16.84;100.00;94018.88;5010412;28;20239;-73
2022/08/14 02:56:09;;;;;;;14.20;7.22;;;;;;;16.85;100.00;94014.97;5010589;28;20229;-74
2022/08/14 02:58:39;;;;;;;11.52;5.97;;;;;;;16.81;100.00;94019.63;5010567;28;20197;-73
2022/08/14 03:01:07;;;;;;;12.75;7.18;;;;;;;16.86;100.00;94027.47;5010244;28;20619;-74
2022/08/14 03:03:35;;;;;;;13.20;7.88;;;;;;;16.82;100.00;94026.66;5010471;28;20220;-74
2022/08/14 03:06:05;;;;;;;13.48;7.25;;;;;;;16.80;100.00;94020.03;5010468;28;20209;-75
2022/08/14 03:08:32;;;;;;;9.80;5.82;;;;;;;16.94;100.00;94023.63;5010590;28;20267;-74
2022/08/14 03:11:00;;;;;;;15.52;7.18;;;;;;;17.08;100.00;94022.16;5009870;28;20275;-75
2022/08/14 03:13:27;;;;;;;13.73;7.65;;;;;;;17.09;100.00;94023.69;5010803;28;20201;-75
2022/08/14 03:15:54;;;;;;;15.98;8.45;;;;;;;17.04;100.00;94027.59;5009992;28;20327;-74
2022/08/14 03:18:22;;;;;;;11.38;7.43;;;;;;;17.11;100.00;94010.41;5009997;28;20267;-74
2022/08/14 03:20:50;;;;;;;12.63;7.25;;;;;;;17.12;99.63;94025.66;4997463;28;20209;-74
2022/08/14 03:23:19;;;;;;;12.02;7.43;;;;;;;17.05;99.49;94019.00;5010170;28;20802;-74
2022/08/14 03:25:46;;;;;;;17.33;8.75;;;;;;;17.05;99.37;94023.69;5009817;28;20580;-74
2022/08/14 03:28:14;;;;;;;22.45;11.90;;;;;;;16.99;99.37;94020.53;5009952;28;20197;-74
2022/08/14 03:30:41;;;;;;;16.20;8.02;;;;;;;17.00;99.38;94022.09;5010015;28;20250;-74
2022/08/14 03:33:11;;;;;;;25.00;15.13;;;;;;;16.90;100.00;94022.03;5010372;28;20283;-74
2022/08/14 03:35:40;;;;;;;18.92;10.40;;;;;;;16.95;100.00;94038.84;5009981;28;20683;-74
2022/08/14 03:38:09;;;;;;;18.10;9.07;;;;;;;17.04;100.00;94039.31;5010344;28;20201;-74
2022/08/14 03:40:38;;;;;;;21.73;9.38;;;;;;;17.11;99.87;94038.56;5009826;28;20201;-74
2022/08/14 03:43:06;;;;;;;16.42;8.88;;;;;;;17.01;99.96;94040.09;5009906;28;20715;-74
2022/08/14 03:45:34;;;;;;;17.08;8.95;;;;;;;16.91;100.00;94034.56;5009768;28;20775;-74
2022/08/14 03:48:02;;;;;;;18.10;8.35;;;;;;;16.85;100.00;94036.84;5009923;28;20216;-75
2022/08/14 03:50:31;;;;;;;19.02;8.93;;;;;;;16.83;100.00;94050.13;5010425;28;20217;-74
2022/08/14 03:52:58;;;;;;;12.80;7.63;;;;;;;16.87;100.00;94045.47;5009695;28;20611;-74
2022/08/14 03:55:27;;;;;;;21.17;10.45;;;;;;;16.81;100.00;94043.50;5010119;28;20275;-74
2022/08/14 03:57:55;;;;;;;18.55;9.88;;;;;;;16.81;100.00;94052.44;5013750;28;20290;-74
2022/08/14 04:00:22;;;;;;;18.50;8.73;;;;;;;16.76;100.00;94039.16;5013152;28;20197;-74
2022/08/14 04:02:49;;;;;;;17.85;9.23;;;;;;;16.80;100.00;94039.19;5013138;28;20259;-74
2022/08/14 04:05:16;;;;;;;22.90;8.82;;;;;;;16.88;100.00;94044.31;5013676;28;20232;-74
2022/08/14 04:07:43;;;;;;;17.75;9.60;;;;;;;17.09;100.00;94051.06;5013979;28;20259;-74
2022/08/14 04:10:10;;;;;;;19.55;8.60;;;;;;;17.10;100.00;94042.47;5013653;28;20608;-74
2022/08/14 04:12:37;;;;;;;16.42;8.18;;;;;;;17.11;100.00;94049.50;5012819;28;20193;-74
2022/08/14 04:15:06;;;;;;;20.80;10.75;;;;;;;17.14;99.58;94053.44;5013103;28;20259;-74
2022/08/14 04:17:35;;;;;;;20.92;10.20;;;;;;;17.20;98.92;94047.22;5013296;28;20205;-73
2022/08/14 04:20:04;;;;;;;20.15;11.07;;;;;;;17.22;98.67;94044.88;5013500;28;20204;-74
2022/08/14 04:22:31;;;;;;;25.02;11.80;;;;;;;17.35;97.87;94042.59;5013332;28;20553;-74
2022/08/14 04:25:00;;;;;;;20.52;11.07;;;;;;;17.33;97.10;94056.69;5013389;28;20583;-74
2022/08/14 04:27:28;;;;;;;22.08;11.40;;;;;;;17.27;97.74;94054.69;5013098;28;20718;-75
2022/08/14 04:29:56;;;;;;;15.70;9.38;;;;;;;17.36;97.48;94049.63;5013048;28;20208;-74
2022/08/14 04:32:26;;;;;;;18.08;9.68;;;;;;;17.38;97.02;94052.75;5013014;28;20297;-74
2022/08/14 04:34:54;;;;;;;19.45;9.90;;;;;;;17.46;97.10;94042.66;5012448;28;20767;-74
2022/08/14 04:45:39;;;;;;;22.27;11.18;;;;;;;18.00;94.94;94047.13;5012641;28;20586;-75
2022/08/14 04:48:11;;;;;;;20.13;9.75;;;;;;;18.01;94.65;94035.00;5012204;28;20212;-74
2022/08/14 04:50:39;;;;;;;19.25;9.63;;;;;;;18.06;93.95;94037.34;5012332;28;20310;-74
2022/08/14 04:53:05;;;;;;;23.70;14.73;;;;;;;18.08;93.65;94035.00;5012333;28;20236;-74
2022/08/14 04:55:33;;;;;;;14.23;7.53;;;;;;;18.13;92.78;94042.84;5012836;28;20259;-74
2022/08/14 04:58:01;;;;;;;18.33;9.52;;;;;;;18.15;92.55;94035.03;5012566;28;20212;-75
2022/08/14 05:00:28;;;;;;;19.20;10.27;;;;;;;18.29;91.90;94032.31;5012640;28;20213;-73
2022/08/14 05:02:55;;;;;;;15.60;9.07;;;;;;;18.23;90.69;94031.09;5011613;28;20323;-75
2022/08/14 05:05:24;;;;;;;21.83;14.30;;;;;;;18.10;90.83;94033.44;5011848;28;20240;-74
2022/08/14 05:07:51;;;;;;;20.85;14.38;;;;;;;18.21;90.95;94033.44;5012000;28;20547;-74
2022/08/14 05:10:24;;;;;;;20.75;14.00;;;;;;;18.22;89.91;94024.06;5012055;28;20201;-74
2022/08/14 05:12:52;;;;;;;20.63;13.68;;;;;;;18.40;88.15;94030.34;5012795;28;20197;-73
2022/08/14 05:15:20;;;;;;;17.50;9.80;;;;;;;18.23;88.68;94031.09;5011839;28;20319;-74
2022/08/14 05:17:48;;;;;;;16.40;7.95;;;;;;;18.38;88.62;94037.38;5012463;28;20407;-74
2022/08/14 05:20:15;;;;;;;18.55;9.93;;;;;;;18.42;88.67;94036.22;5012116;28;20197;-74
2022/08/14 05:22:44;;;;;;;15.27;9.73;;;;;;;18.52;88.73;94042.88;5012486;28;20257;-74
2022/08/14 05:25:11;;;;;;;13.40;7.85;;;;;;;18.46;89.27;94039.72;5011924;28;20232;-74
2022/08/14 05:27:38;;;;;;;18.83;9.35;;;;;;;18.47;89.50;94041.28;5012322;28;20216;-74
2022/08/14 05:30:06;;;;;;;21.88;14.43;;;;;;;18.42;90.00;94038.19;5012015;28;20224;-74
2022/08/14 05:32:33;;;;;;;24.27;15.82;;;;;;;18.34;89.60;94037.38;5011509;28;20256;-73
2022/08/14 05:35:00;;;;;;;21.83;14.02;;;;;;;18.35;89.80;94038.94;5012108;28;20205;-73
2022/08/14 05:37:29;;;;;;;21.83;13.68;;;;;;;18.29;90.81;94040.53;5011685;28;20373;-72
2022/08/14 05:39:58;;;;;;;15.77;8.68;;;;;;;18.10;90.73;94040.88;5012098;28;20201;-72
2022/08/14 05:42:26;;;;;;;15.77;9.75;;;;;;;18.08;91.56;94046.75;5012077;28;20217;-73
2022/08/14 05:44:52;;;;;;;17.05;9.32;;;;;;;17.91;92.61;94046.72;5011650;28;20229;-72
2022/08/14 05:47:19;;;;;;;19.77;11.13;;;;;;;18.02;92.85;94051.06;5012016;28;20243;-73
2022/08/14 05:49:47;;;;;;;14.80;9.10;;;;;;;18.15;92.93;94051.47;5011887;28;20262;-73
2022/08/14 05:52:14;;;;;;;16.23;9.63;;;;;;;18.23;91.72;94035.81;5011591;28;20236;-73
2022/08/14 05:54:41;;;;;;;17.67;8.38;;;;;;;18.27;91.01;94042.88;5011820;28;20201;-73
2022/08/14 05:57:09;;;;;;;15.52;8.20;;;;;;;18.30;91.67;94041.31;5011734;28;20201;-73
2022/08/14 05:59:36;;;;;;;13.60;8.85;;;;;;;18.34;90.60;94031.91;5011706;28;20208;-72
2022/08/14 06:02:03;;;;;;;15.77;9.23;;;;;;;18.48;89.98;94040.13;5011720;28;20211;-73
2022/08/14 06:04:30;;;;;;;19.92;13.27;;;;;;;18.41;90.57;94042.88;5010971;28;20660;-73
2022/08/14 06:06:57;;;;;;;19.27;13.20;;;;;;;18.39;89.73;94039.75;5011164;28;20229;-73
2022/08/14 06:09:24;;;;;;;14.65;8.90;;;;;;;18.70;89.77;94043.69;5011050;28;20201;-73
2022/08/14 06:11:51;;;;;;;19.40;13.00;;;;;;;18.85;89.79;94049.94;5011128;28;20197;-73
2022/08/14 06:14:20;;;;;;;16.02;9.57;;;;;;;18.91;88.06;94053.84;5010999;28;20241;-72
2022/08/14 06:16:46;;;;;;;13.30;8.02;;;;;;;18.78;88.12;94055.44;5010706;28;20208;-73
2022/08/14 06:19:13;;;;;;;12.60;7.53;;;;;;;18.83;87.82;94049.56;4993926;28;20260;-73
2022/08/14 06:21:40;;;;;;;13.63;7.68;;;;;;;18.81;87.67;94060.13;5008464;28;20205;-73
2022/08/14 06:24:08;;;;;;;14.70;10.30;;;;;;;18.81;87.80;94049.16;5007469;28;20544;-73
2022/08/14 06:26:35;;;;;;;12.13;7.82;;;;;;;18.97;86.76;94052.28;5000898;28;20283;-73
2022/08/14 06:29:01;;;;;;;14.07;10.95;;;;;;;19.07;86.23;94056.19;5011083;28;20212;-73
2022/08/14 06:31:30;;;;;;;11.77;7.07;;;;;;;18.96;87.07;94056.19;5010449;28;20723;-73
2022/08/14 06:33:57;;;;;;;11.73;7.35;;;;;;;19.18;85.70;94052.22;5010901;28;20732;-73
2022/08/14 06:36:24;;;;;;;11.93;7.03;;;;;;;18.92;86.41;94055.41;5010280;28;20264;-73
2022/08/14 06:38:51;;;;;;;10.15;6.38;;;;;;;18.70;87.32;94059.38;5010476;28;20255;-73
2022/08/14 06:41:18;;;;;;;14.20;6.95;;;;;;;18.59;88.19;94069.53;5010698;28;20197;-72
2022/08/14 06:43:45;;;;;;;11.45;6.85;;;;;;;18.58;88.50;94062.47;5010568;28;20205;-73
2022/08/14 06:46:12;;;;;;;8.90;5.85;;;;;;;18.42;88.79;94060.13;5010317;28;20295;-75
2022/08/14 06:48:40;;;;;;;9.35;5.70;;;;;;;18.36;90.10;94062.44;5010319;28;20205;-72
2022/08/14 06:51:07;;;;;;;19.80;12.35;;;;;;;18.30;90.79;94064.03;5010258;28;20735;-72
2022/08/14 06:53:34;;;;;;;17.38;12.15;;;;;;;18.03;91.53;94049.91;5010152;28;20201;-74
2022/08/14 06:56:01;;;;;;;11.07;7.18;;;;;;;18.05;91.81;94063.19;5010187;28;20209;-74
2022/08/14 06:58:28;;;;;;;14.38;7.70;;;;;;;18.14;91.63;94066.34;5010016;28;20212;-74
2022/08/14 07:06:25;;;;;;;13.25;7.45;;;;;;;18.29;90.16;94067.94;4999151;28;20236;-74
2022/08/14 07:08:52;;;;;;;17.40;12.40;;;;;;;18.45;90.31;94070.28;5010157;28;20205;-74
2022/08/14 07:11:18;;;;;;;21.85;13.88;;;;;;;18.73;89.89;94070.31;5010251;28;20201;-74
2022/08/14 07:13:45;;;;;;;18.58;12.45;;;;;;;19.06;88.74;94071.88;5009479;28;20267;-74
2022/08/14 07:16:12;;;;;;;11.35;6.75;;;;;;;19.27;85.79;94078.50;5009728;28;20291;-74
2022/08/14 07:18:41;;;;;;;10.38;8.23;;;;;;;19.58;82.04;94068.59;5010105;28;20286;-73
2022/08/14 07:21:09;;;;;;;5.70;3.60;;;;;;;19.73;80.79;94065.41;5009913;28;20288;-74
2022/08/14 07:23:36;;;;;;;4.65;3.67;;;;;;;20.08;80.06;94069.97;5009775;28;20205;-74
2022/08/14 07:26:05;;;;;;;8.63;6.50;;;;;;;20.33;78.53;94064.31;5010001;28;20220;-74
2022/08/14 07:28:34;;;;;;;24.63;14.88;;;;;;;20.48;79.54;94065.03;5010280;28;20259;-73
2022/08/14 07:31:02;;;;;;;18.88;11.48;;;;;;;20.09;80.25;94070.75;5012297;28;20208;-73
2022/08/14 07:33:36;;;;;;;19.73;12.48;;;;;;;19.93;81.61;94062.97;5013352;28;20301;-73
2022/08/14 07:36:08;;;;;;;18.92;13.35;;;;;;;20.04;82.07;94062.91;5014087;28;20193;-74
2022/08/14 07:38:36;;;;;;;21.08;14.45;;;;;;;19.62;84.06;94086.66;5013691;28;20204;-74
2022/08/14 07:41:05;;;;;;;25.60;15.15;;;;;;;19.78;83.25;94073.25;5014067;28;20236;-73
2022/08/14 07:43:31;;;;;;;18.15;8.75;;;;;;;20.01;82.69;94063.69;5000670;28;20291;-72
2022/08/14 07:45:59;;;;;;;16.75;9.23;;;;;;;20.03;82.12;94066.84;5013508;28;20224;-73
2022/08/14 07:48:26;;;;;;;13.50;8.50;;;;;;;20.02;81.32;94070.78;5013942;28;20715;-73
2022/08/14 07:50:53;;;;;;;19.30;13.35;;;;;;;20.27;80.75;94065.91;5013152;28;20201;-74
2022/08/14 07:53:22;;;;;;;20.02;13.23;;;;;;;20.38;80.01;94068.59;5013701;28;20208;-73
2022/08/14 07:55:49;;;;;;;17.45;13.02;;;;;;;20.48;80.03;94070.53;5013259;28;20275;-74
2022/08/14 07:58:17;;;;;;;11.52;6.50;;;;;;;19.77;80.95;94071.69;5013358;28;20614;-73
2022/08/14 08:00:44;;;;;;;8.52;5.20;;;;;;;19.52;80.65;94076.50;5013338;28;20208;-73
2022/08/14 08:03:12;;;;;;;8.60;4.90;;;;;;;19.30;81.11;94075.72;5013103;28;20667;-73
2022/08/14 08:05:40;;;;;;;6.18;4.05;;;;;;;19.11;78.75;94079.72;5013312;28;20319;-72
2022/08/14 08:08:08;;;;;;;6.63;3.53;;;;;;;19.34;79.26;94075.72;5012952;28;20638;-74
2022/08/14 08:10:40;;;;;;;4.28;3.45;;;;;;;19.22;77.62;94079.69;5012887;28;20616;-73
2022/08/14 08:13:11;;;;;;;4.80;3.75;;;;;;;18.94;78.62;94075.03;5013513;28;20189;-75
2022/08/14 08:15:40;;;;;;;5.85;2.75;;;;;;;18.95;79.23;94076.59;4999168;28;20237;-74
2022/08/14 08:18:09;;;;;;;4.10;2.40;;;;;;;19.34;80.06;94070.22;5012532;28;20675;-73
2022/08/14 08:20:37;;;;;;;5.82;4.35;;;;;;;19.11;79.97;94070.69;5012777;28;20672;-74
2022/08/14 08:23:05;;;;;;;3.80;2.85;;;;;;;19.30;81.44;94074.94;5012852;28;20209;-74
2022/08/14 08:25:35;;;;;;;5.25;4.25;;;;;;;18.97;81.26;94074.25;5012741;28;20212;-74
2022/08/14 08:28:07;;;;;;;6.07;4.55;;;;;;;19.07;82.53;94069.91;5012497;28;20216;-73
2022/08/14 08:30:37;;;;;;;4.68;3.95;;;;;;;19.15;80.83;94072.22;4999293;28;20224;-73
2022/08/14 08:33:05;;;;;;;4.57;2.90;;;;;;;19.02;80.89;94068.34;5012579;28;20372;-73
2022/08/14 08:35:34;;;;;;;6.85;4.28;;;;;;;19.17;81.83;94069.09;5012408;28;20209;-73
2022/08/14 08:38:03;;;;;;;4.60;3.03;;;;;;;19.28;79.09;94066.31;5012796;28;20279;-73
2022/08/14 08:40:35;;;;;;;3.95;2.58;;;;;;;19.52;79.05;94065.50;5012183;28;20205;-73
2022/08/14 08:43:05;;;;;;;5.35;4.05;;;;;;;19.92;77.00;94066.13;5011465;28;20189;-74
2022/08/14 08:45:32;;;;;;;5.10;4.25;;;;;;;19.98;76.12;94061.75;5011903;28;20793;-73
2022/08/14 08:47:59;;;;;;;4.90;3.67;;;;;;;20.20;75.61;94063.22;5012582;28;20617;-75
2022/08/14 08:50:32;;;;;;;3.90;3.00;;;;;;;20.64;74.38;94067.25;5012463;28;20742;-74
2022/08/14 08:53:01;;;;;;;4.03;3.15;;;;;;;20.18;73.23;94060.06;5012046;28;20220;-76
2022/08/14 08:55:30;;;;;;;3.90;2.95;;;;;;;20.19;75.18;94062.44;5012318;28;20598;-74
2022/08/14 08:57:59;;;;;;;3.47;2.78;;;;;;;20.02;73.79;94062.53;5012243;28;20208;-74
2022/08/14 09:00:32;;;;;;;3.58;3.00;;;;;;;20.13;74.37;94052.25;5011588;28;20204;-75
2022/08/14 09:03:03;;;;;;;2.67;2.17;;;;;;;20.56;73.46;94042.53;5012099;28;20233;-74
2022/08/14 09:05:32;;;;;;;4.68;2.28;;;;;;;21.30;70.50;94047.78;5012329;28;20244;-73
2022/08/14 09:08:17;;;;;;;3.65;2.28;;;;;;;21.84;68.57;94043.22;5012001;28;20205;-73
2022/08/14 09:10:46;;;;;;;2.97;2.00;;;;;;;21.94;68.84;94032.03;5011121;28;20205;-73
2022/08/14 09:13:14;;;;;;;2.70;2.00;;;;;;;21.75;69.06;94034.66;5011612;28;20296;-74
2022/08/14 09:15:44;;;;;;;4.75;3.10;;;;;;;21.08;69.55;94025.94;5011546;28;20243;-73
2022/08/14 09:18:13;;;;;;;3.85;2.97;;;;;;;21.23;69.20;94027.38;5012004;28;20720;-74
2022/08/14 09:20:43;;;;;;;4.25;3.35;;;;;;;21.24;70.30;94028.94;5011170;28;20205;-73
2022/08/14 09:23:11;;;;;;;4.05;3.30;;;;;;;21.48;68.95;94031.81;5011789;28;20216;-73
2022/08/14 09:25:40;;;;;;;4.60;3.22;;;;;;;21.94;68.26;94026.53;5011289;28;20600;-73
2022/08/14 09:28:08;;;;;;;4.40;3.65;;;;;;;22.57;65.50;94024.03;5011453;28;20209;-73
2022/08/14 09:30:37;;;;;;;5.22;2.75;;;;;;;22.89;65.59;94031.06;4998976;28;20217;-72
2022/08/14 09:33:22;;;;;;;5.07;4.20;;;;;;;23.61;62.83;94023.03;5011793;28;20282;-73
2022/08/14 09:36:01;;;;;;;4.35;3.80;;;;;;;24.58;61.26;94020.53;5011237;28;20592;-73
2022/08/14 09:38:38;;;;;;;5.47;4.35;;;;;;;24.33;58.88;94023.09;5011789;28;20258;-74
2022/08/14 09:41:13;;;;;;;6.20;4.78;;;;;;;23.96;60.07;94016.75;5011374;28;20664;-73
2022/08/14 09:43:46;;;;;;;4.97;4.47;;;;;;;24.16;60.58;94032.56;5011682;28;20262;-74
2022/08/14 09:46:15;;;;;;;4.65;4.20;;;;;;;24.74;57.94;94014.97;5011544;28;20216;-72
2022/08/14 09:48:44;;;;;;;4.55;3.70;;;;;;;24.90;57.10;94005.88;5012089;28;20212;-72
2022/08/14 09:51:22;;;;;;;4.45;3.95;;;;;;;24.99;57.71;94024.72;5011397;28;20631;-72
2022/08/14 09:54:01;;;;;;;4.82;4.00;;;;;;;25.03;56.88;94019.84;5010324;28;20203;-74
2022/08/14 09:56:28;;;;;;;5.75;4.20;;;;;;;24.43;58.82;94017.31;4998515;28;20256;-73
2022/08/14 09:58:59;;;;;;;6.43;4.65;;;;;;;24.15;60.07;94023.47;5011051;28;20267;-73
2022/08/14 10:01:39;;;;;;;9.70;5.15;;;;;;;24.12;60.04;94018.78;5011374;28;20229;-73
2022/08/14 10:04:19;;;;;;;7.40;5.30;;;;;;;22.87;63.92;94027.94;5011389;28;20193;-74
2022/08/14 10:06:47;;;;;;;5.95;5.07;;;;;;;22.89;63.86;94029.06;5011056;28;20224;-73
2022/08/14 10:09:14;;;;;;;7.10;5.53;;;;;;;22.79;63.71;94024.50;5010720;28;20251;-73
2022/08/14 10:11:41;;;;;;;7.45;5.60;;;;;;;23.21;63.53;94028.50;5011058;28;20216;-73
2022/08/14 10:14:16;;;;;;;6.22;5.20;;;;;;;23.55;63.41;94030.25;5010105;28;20205;-73
2022/08/14 10:16:46;;;;;;;5.85;4.35;;;;;;;23.75;62.54;94025.53;5010467;28;20243;-73
2022/08/14 10:19:17;;;;;;;7.35;4.45;;;;;;;23.28;64.07;94028.38;5010551;28;20259;-74
2022/08/14 10:21:59;;;;;;;5.97;4.80;;;;;;;23.53;62.95;94019.63;5010613;28;20207;-73
2022/08/14 10:24:28;;;;;;;5.68;4.88;;;;;;;22.88;64.07;94021.19;5010828;28;20189;-74
2022/08/14 10:26:55;;;;;;;7.00;5.15;;;;;;;23.17;63.18;94019.50;5010380;28;20762;-73
2022/08/14 10:29:31;;;;;;;5.68;4.90;;;;;;;22.73;64.73;94014.31;5010335;28;20739;-73
2022/08/14 10:31:59;;;;;;;5.38;4.50;;;;;;;22.84;64.90;94020.47;5010681;28;20209;-73
2022/08/14 10:34:32;;;;;;;4.50;3.70;;;;;;;21.85;67.73;94018.00;5010419;28;20232;-73
2022/08/14 10:37:06;;;;;;;4.20;3.80;;;;;;;21.63;67.67;94022.19;5010522;28;20733;-74
2022/08/14 10:39:34;;;;;;;4.18;3.55;;;;;;;21.71;68.60;94017.38;5010187;28;20201;-73
2022/08/14 10:42:04;;;;;;;3.80;3.25;;;;;;;21.86;66.89;94014.03;4997666;28;20236;-73
2022/08/14 10:44:35;;;;;;;3.72;3.33;;;;;;;22.00;66.55;94007.56;5009729;28;20340;-75
2022/08/14 10:47:04;;;;;;;3.60;3.17;;;;;;;21.94;67.71;93998.16;5010588;28;20295;-74
2022/08/14 10:49:34;;;;;;;4.50;3.08;;;;;;;22.52;66.32;93991.41;5010203;28;20216;-74
2022/08/14 10:52:06;;;;;;;4.45;3.42;;;;;;;22.33;65.92;93998.41;5010057;28;20225;-73
2022/08/14 10:54:37;;;;;;;4.18;3.33;;;;;;;22.80;70.24;93989.41;5010146;28;20209;-75
2022/08/14 10:57:17;;;;;;;5.22;3.72;;;;;;;23.02;65.82;93985.03;5009361;28;20661;-74
2022/08/14 10:59:46;;;;;;;6.28;4.68;;;;;;;23.25;64.59;93986.97;5010367;28;20209;-74
2022/08/14 11:02:28;;;;;;;5.35;4.47;;;;;;;23.57;62.92;93983.59;5010626;28;20201;-75
2022/08/14 11:05:16;;;;;;;5.15;4.30;;;;;;;23.57;62.96;93978.84;4990423;28;20244;-74
2022/08/14 11:07:59;;;;;;;4.63;3.67;;;;;;;23.46;62.18;93971.97;5008317;28;20220;-75
2022/08/14 11:10:38;;;;;;;4.25;3.75;;;;;;;23.54;61.95;93978.94;5009624;28;20679;-74
2022/08/14 11:13:05;;;;;;;4.78;4.13;;;;;;;23.70;62.13;93976.22;5009759;28;20255;-74
2022/08/14 11:15:33;;;;;;;4.20;3.65;;;;;;;23.71;61.80;93963.97;5008964;28;20248;-74
2022/08/14 11:18:00;;;;;;;4.40;3.15;;;;;;;23.96;60.39;93964.19;5010758;28;20225;-75
2022/08/14 11:20:30;;;;;;;3.65;2.97;;;;;;;24.84;58.01;93951.44;5009897;28;20347;-74
2022/08/14 11:23:00;;;;;;;5.85;4.05;;;;;;;25.47;57.62;93949.72;5009838;28;20205;-74
2022/08/14 11:25:30;;;;;;;3.90;3.38;;;;;;;25.66;55.46;93945.25;5009888;28;20208;-73
2022/08/14 11:27:58;;;;;;;3.70;3.28;;;;;;;25.93;55.27;93936.53;5009760;28;20213;-74
2022/08/14 11:30:28;;;;;;;4.22;3.30;;;;;;;25.89;55.04;93946.94;5009928;28;20219;-75
2022/08/14 11:32:56;;;;;;;5.40;4.32;;;;;;;25.71;53.35;93946.69;5010035;28;20769;-73
2022/08/14 11:35:26;;;;;;;4.55;3.72;;;;;;;25.28;55.07;93958.22;5005648;28;20209;-73
2022/08/14 11:37:57;;;;;;;5.65;4.07;;;;;;;25.45;55.13;93966.03;5003471;28;20267;-73
2022/08/14 11:40:27;;;;;;;5.95;4.68;;;;;;;25.36;55.40;93960.34;5010066;28;20193;-73
2022/08/14 11:42:55;;;;;;;5.15;3.97;;;;;;;25.27;56.29;93965.75;5009465;28;20588;-74
2022/08/14 11:45:24;;;;;;;5.38;3.90;;;;;;;25.23;55.31;93961.50;5009463;28;20204;-74
2022/08/14 11:47:53;;;;;;;5.28;4.13;;;;;;;24.81;57.37;93958.63;4992156;28;20229;-73
2022/08/14 11:50:23;;;;;;;6.38;4.05;;;;;;;25.22;56.21;93957.19;5009590;28;20244;-74